ALS Fauna — 9V5676 — position and weather

sailwx.info

Track history (hours):
 
Tides and Currents Weather Stations Pressure Air Temp Water Temp Dewpoint Dewpoint Depression Visibility Wind Speed Wind Dir Waves Ship Positions

ALS Fauna

Last reported at 2018-Apr-25 14:30 UTC. Time now 2018-Apr-25 14:43 UTC.
Position N 36°09' W 005°26'.

Length 261 m; draft 7.4 m.

Type: Cargo ship. MMSI: 563036600.

Date/timePositionNaut miles runAvg speedWind from/ knotsBaromVisibWave heightAir tempDewpointWater temp
2018-Apr-25 14:30N 36°09' W 005°26'0 0.0
2018-Apr-25 14:00N 36°09' W 005°26'0 0.0
2018-Apr-25 13:30N 36°09' W 005°26'0 0.0
2018-Apr-25 13:00N 36°09' W 005°26'0 0.0
2018-Apr-25 12:27N 36°09' W 005°26'0 0.0
2018-Apr-25 12:00N 36°09' W 005°26'1 1.7
2018-Apr-25 11:30N 36°09' W 005°25'2 4.6
2018-Apr-25 11:00N 36°07' W 005°23'4 7.2
2018-Apr-25 10:30N 36°04' W 005°21'3 7.1
2018-Apr-25 10:00N 36°04' W 005°16'1 1.8
2018-Apr-25 09:30N 36°05' W 005°17'3 5.3
2018-Apr-25 09:00N 36°07' W 005°15'2 3.7
2018-Apr-25 08:20N 36°07' W 005°12'0 1.3
2018-Apr-25 07:58N 36°07' W 005°13'1 1.1
2018-Apr-25 07:30N 36°07' W 005°14'0 0.9
2018-Apr-25 06:58N 36°07' W 005°14'0 0.6
2018-Apr-25 06:30N 36°07' W 005°14'1 1.1
2018-Apr-25 06:00N 36°07' W 005°14'2 4.8
2018-Apr-25 05:30N 36°04' W 005°13'5 9.1
2018-Apr-25 05:00N 36°00' W 005°15'713.1
2018-Apr-25 04:30N 35°58' W 005°22'611.8
2018-Apr-25 04:00N 35°56' W 005°29'3 5.2
2018-Apr-25 03:30N 35°53' W 005°30'5 0.4
2018-Apr-24 13:41N 35°57' W 005°34'1 3.9
2018-Apr-24 13:30N 35°58' W 005°33'3 5.4
2018-Apr-24 13:00N 35°58' W 005°30'5 9.3
2018-Apr-24 12:30N 36°00' W 005°24'612.1
2018-Apr-24 12:00N 36°02' W 005°18'713.5
2018-Apr-24 11:30N 36°06' W 005°11'  
2018-Apr-20 04:26N 36°02' W 005°12'410.3
2018-Apr-20 04:00N 36°01' W 005°17'510.9
2018-Apr-20 03:30N 35°59' W 005°23'510.8
2018-Apr-20 03:00N 35°57' W 005°29'610.8
2018-Apr-20 02:29N 35°55' W 005°36'17 9.7
2018-Apr-20 00:44N 35°53' W 005°57'14510.6
2018-Apr-19 11:08N 34°10' W 008°00'212.3
2018-Apr-19 10:59N 34°09' W 008°01'613.1
2018-Apr-19 10:30N 34°04' W 008°07'1113.5
2018-Apr-19 09:40N 33°56' W 008°16'213.2
2018-Apr-19 09:30N 33°54' W 008°18'7312.6
2018-Apr-19 03:43N 33°01' W 009°18'311.5
2018-Apr-19 03:27N 32°59' W 009°21'511.6
2018-Apr-19 03:01N 32°55' W 009°25'611.6
2018-Apr-19 02:30N 32°51' W 009°30'611.5
2018-Apr-19 02:01N 32°47' W 009°35'611.3
2018-Apr-19 01:30N 32°44' W 009°40'510.8
2018-Apr-19 01:00N 32°40' W 009°45'810.6
2018-Apr-19 00:14N 32°35' W 009°52'310.6
2018-Apr-19 00:00N 32°33' W 009°54'510.5
2018-Apr-18 23:30N 32°30' W 009°59'510.5
2018-Apr-18 22:59N 32°26' W 010°04'510.6
2018-Apr-18 22:30N 32°22' W 010°08'510.6
2018-Apr-18 22:00N 32°18' W 010°12'510.6
2018-Apr-18 21:30N 32°14' W 010°16'510.7
2018-Apr-18 21:00N 32°10' W 010°20'510.8
2018-Apr-18 20:30N 32°06' W 010°24'510.7
2018-Apr-18 20:00N 32°02' W 010°28'510.7
2018-Apr-18 19:30N 31°58' W 010°32'510.7
2018-Apr-18 19:00N 31°54' W 010°36'610.9
2018-Apr-18 18:30N 31°49' W 010°40'510.9
2018-Apr-18 18:01N 31°45' W 010°44'611.0
2018-Apr-18 17:31N 31°41' W 010°49'611.1
2018-Apr-18 17:00N 31°37' W 010°53'611.1
2018-Apr-18 16:30N 31°33' W 010°57'611.3
2018-Apr-18 16:00N 31°29' W 011°02'1511.2
2018-Apr-18 14:38N 31°17' W 011°13'111.1
2018-Apr-18 14:30N 31°16' W 011°14'611.0
2018-Apr-18 13:59N 31°12' W 011°19'611.0
2018-Apr-18 13:27N 31°07' W 011°23'610.9
2018-Apr-18 12:55N 31°03' W 011°28'1010.9
2018-Apr-18 12:00N 30°55' W 011°36'811.0
2018-Apr-18 11:15N 30°49' W 011°42'410.9
2018-Apr-18 10:54N 30°46' W 011°45'511.0
2018-Apr-18 10:26N 30°42' W 011°48'511.1
2018-Apr-18 10:00N 30°38' W 011°52'511.1
2018-Apr-18 09:30N 30°34' W 011°55'611.2
2018-Apr-18 09:00N 30°29' W 011°58'611.1
2018-Apr-18 08:30N 30°24' W 012°01'611.3
2018-Apr-18 08:00N 30°19' W 012°05'611.5
2018-Apr-18 07:30N 30°15' W 012°09'611.4
2018-Apr-18 07:00N 30°10' W 012°13'611.3
2018-Apr-18 06:30N 30°05' W 012°16'511.0
2018-Apr-18 06:00N 30°01' W 012°20'611.1
2018-Apr-18 05:30N 29°57' W 012°25'510.9
2018-Apr-18 05:00N 29°52' W 012°28'611.1
2018-Apr-18 04:30N 29°48' W 012°32'511.2
2018-Apr-18 04:00N 29°44' W 012°36'611.1
2018-Apr-18 03:29N 29°39' W 012°41'611.5
2018-Apr-18 02:58N 29°35' W 012°45'611.5
2018-Apr-18 02:28N 29°30' W 012°49'511.6
2018-Apr-18 02:00N 29°26' W 012°53'611.6
2018-Apr-18 01:30N 29°22' W 012°58'611.6
2018-Apr-18 00:57N 29°17' W 013°03'511.8
2018-Apr-18 00:29N 29°13' W 013°06'611.7
2018-Apr-18 00:01N 29°08' W 013°09'611.7
2018-Apr-17 23:31N 29°03' W 013°12'611.3
2018-Apr-17 23:01N 28°58' W 013°15'611.6
2018-Apr-17 22:30N 28°52' W 013°18'611.4
2018-Apr-17 22:00N 28°47' W 013°21'611.3
2018-Apr-17 21:28N 28°42' W 013°24'511.2
2018-Apr-17 21:00N 28°37' W 013°26'611.2
2018-Apr-17 20:30N 28°32' W 013°29'611.3
2018-Apr-17 20:00N 28°27' W 013°32'611.2
2018-Apr-17 19:30N 28°22' W 013°34'611.2
2018-Apr-17 19:00N 28°16' W 013°37'611.2
2018-Apr-17 18:30N 28°11' W 013°39'611.5
2018-Apr-17 17:58N 28°06' W 013°42'511.5
2018-Apr-17 17:30N 28°01' W 013°45'611.7
2018-Apr-17 17:00N 27°56' W 013°47'611.3
2018-Apr-17 16:30N 27°50' W 013°50'510.9
2018-Apr-17 16:00N 27°45' W 013°53'510.2
2018-Apr-17 15:30N 27°41' W 013°56'510.2
2018-Apr-17 15:00N 27°37' W 013°59'510.3
2018-Apr-17 14:30N 27°32' W 014°02'510.2
2018-Apr-17 14:00N 27°28' W 014°05'510.2
2018-Apr-17 13:28N 27°23' W 014°08'510.3
2018-Apr-17 13:00N 27°19' W 014°10'510.4
2018-Apr-17 12:30N 27°15' W 014°13'510.5
2018-Apr-17 12:00N 27°10' W 014°16'510.4
2018-Apr-17 11:31N 27°05' W 014°19'510.2
2018-Apr-17 10:59N 27°01' W 014°21'510.0
2018-Apr-17 10:29N 26°56' W 014°24'5 9.7
2018-Apr-17 10:01N 26°52' W 014°26'5 9.8
2018-Apr-17 09:29N 26°47' W 014°28'510.1
2018-Apr-17 09:01N 26°43' W 014°30'510.4
2018-Apr-17 08:31N 26°38' W 014°33'510.5
2018-Apr-17 08:00N 26°33' W 014°36'510.3
2018-Apr-17 07:30N 26°29' W 014°38'510.0
2018-Apr-17 07:00N 26°24' W 014°41'  
Track history (hours):
 
Tides and Currents Weather Stations Pressure Air Temp Water Temp Dewpoint Dewpoint Depression Visibility Wind Speed Wind Dir Waves Ship Positions

ALS Fauna

Last reported at 2018-Apr-25 14:30 UTC. Time now 2018-Apr-25 14:43 UTC.
Position N 36°09' W 005°26'.

Length 261 m; draft 7.4 m.

Type: Cargo ship. MMSI: 563036600.

Date/timePositionNaut miles runAvg speedWind from/ knotsBaromVisibWave heightAir tempDewpointWater temp
2018-Apr-25 14:30N 36°09' W 005°26'0 0.0
2018-Apr-25 14:00N 36°09' W 005°26'0 0.0
2018-Apr-25 13:30N 36°09' W 005°26'0 0.0
2018-Apr-25 13:00N 36°09' W 005°26'0 0.0
2018-Apr-25 12:27N 36°09' W 005°26'0 0.0
2018-Apr-25 12:00N 36°09' W 005°26'1 1.7
2018-Apr-25 11:30N 36°09' W 005°25'2 4.6
2018-Apr-25 11:00N 36°07' W 005°23'4 7.2
2018-Apr-25 10:30N 36°04' W 005°21'3 7.1
2018-Apr-25 10:00N 36°04' W 005°16'1 1.8
2018-Apr-25 09:30N 36°05' W 005°17'3 5.3
2018-Apr-25 09:00N 36°07' W 005°15'2 3.7
2018-Apr-25 08:20N 36°07' W 005°12'0 1.3
2018-Apr-25 07:58N 36°07' W 005°13'1 1.1
2018-Apr-25 07:30N 36°07' W 005°14'0 0.9
2018-Apr-25 06:58N 36°07' W 005°14'0 0.6
2018-Apr-25 06:30N 36°07' W 005°14'1 1.1
2018-Apr-25 06:00N 36°07' W 005°14'2 4.8
2018-Apr-25 05:30N 36°04' W 005°13'5 9.1
2018-Apr-25 05:00N 36°00' W 005°15'713.1
2018-Apr-25 04:30N 35°58' W 005°22'611.8
2018-Apr-25 04:00N 35°56' W 005°29'3 5.2
2018-Apr-25 03:30N 35°53' W 005°30'5 0.4
2018-Apr-24 13:41N 35°57' W 005°34'1 3.9
2018-Apr-24 13:30N 35°58' W 005°33'3 5.4
2018-Apr-24 13:00N 35°58' W 005°30'5 9.3
2018-Apr-24 12:30N 36°00' W 005°24'612.1
2018-Apr-24 12:00N 36°02' W 005°18'713.5
2018-Apr-24 11:30N 36°06' W 005°11'  
2018-Apr-20 04:26N 36°02' W 005°12'410.3
2018-Apr-20 04:00N 36°01' W 005°17'510.9
2018-Apr-20 03:30N 35°59' W 005°23'510.8
2018-Apr-20 03:00N 35°57' W 005°29'610.8
2018-Apr-20 02:29N 35°55' W 005°36'17 9.7
2018-Apr-20 00:44N 35°53' W 005°57'14510.6
2018-Apr-19 11:08N 34°10' W 008°00'212.3
2018-Apr-19 10:59N 34°09' W 008°01'613.1
2018-Apr-19 10:30N 34°04' W 008°07'1113.5
2018-Apr-19 09:40N 33°56' W 008°16'213.2
2018-Apr-19 09:30N 33°54' W 008°18'7312.6
2018-Apr-19 03:43N 33°01' W 009°18'311.5
2018-Apr-19 03:27N 32°59' W 009°21'511.6
2018-Apr-19 03:01N 32°55' W 009°25'611.6
2018-Apr-19 02:30N 32°51' W 009°30'611.5
2018-Apr-19 02:01N 32°47' W 009°35'611.3
2018-Apr-19 01:30N 32°44' W 009°40'510.8
2018-Apr-19 01:00N 32°40' W 009°45'810.6
2018-Apr-19 00:14N 32°35' W 009°52'310.6
2018-Apr-19 00:00N 32°33' W 009°54'510.5
2018-Apr-18 23:30N 32°30' W 009°59'510.5
2018-Apr-18 22:59N 32°26' W 010°04'510.6
2018-Apr-18 22:30N 32°22' W 010°08'510.6
2018-Apr-18 22:00N 32°18' W 010°12'510.6
2018-Apr-18 21:30N 32°14' W 010°16'510.7
2018-Apr-18 21:00N 32°10' W 010°20'510.8
2018-Apr-18 20:30N 32°06' W 010°24'510.7
2018-Apr-18 20:00N 32°02' W 010°28'510.7
2018-Apr-18 19:30N 31°58' W 010°32'510.7
2018-Apr-18 19:00N 31°54' W 010°36'610.9
2018-Apr-18 18:30N 31°49' W 010°40'510.9
2018-Apr-18 18:01N 31°45' W 010°44'611.0
2018-Apr-18 17:31N 31°41' W 010°49'611.1
2018-Apr-18 17:00N 31°37' W 010°53'611.1
2018-Apr-18 16:30N 31°33' W 010°57'611.3
2018-Apr-18 16:00N 31°29' W 011°02'1511.2
2018-Apr-18 14:38N 31°17' W 011°13'111.1
2018-Apr-18 14:30N 31°16' W 011°14'611.0
2018-Apr-18 13:59N 31°12' W 011°19'611.0
2018-Apr-18 13:27N 31°07' W 011°23'610.9
2018-Apr-18 12:55N 31°03' W 011°28'1010.9
2018-Apr-18 12:00N 30°55' W 011°36'811.0
2018-Apr-18 11:15N 30°49' W 011°42'410.9
2018-Apr-18 10:54N 30°46' W 011°45'511.0
2018-Apr-18 10:26N 30°42' W 011°48'511.1
2018-Apr-18 10:00N 30°38' W 011°52'511.1
2018-Apr-18 09:30N 30°34' W 011°55'611.2
2018-Apr-18 09:00N 30°29' W 011°58'611.1
2018-Apr-18 08:30N 30°24' W 012°01'611.3
2018-Apr-18 08:00N 30°19' W 012°05'611.5
2018-Apr-18 07:30N 30°15' W 012°09'611.4
2018-Apr-18 07:00N 30°10' W 012°13'611.3
2018-Apr-18 06:30N 30°05' W 012°16'511.0
2018-Apr-18 06:00N 30°01' W 012°20'611.1
2018-Apr-18 05:30N 29°57' W 012°25'510.9
2018-Apr-18 05:00N 29°52' W 012°28'611.1
2018-Apr-18 04:30N 29°48' W 012°32'511.2
2018-Apr-18 04:00N 29°44' W 012°36'611.1
2018-Apr-18 03:29N 29°39' W 012°41'611.5
2018-Apr-18 02:58N 29°35' W 012°45'611.5
2018-Apr-18 02:28N 29°30' W 012°49'511.6
2018-Apr-18 02:00N 29°26' W 012°53'611.6
2018-Apr-18 01:30N 29°22' W 012°58'611.6
2018-Apr-18 00:57N 29°17' W 013°03'511.8
2018-Apr-18 00:29N 29°13' W 013°06'611.7
2018-Apr-18 00:01N 29°08' W 013°09'611.7
2018-Apr-17 23:31N 29°03' W 013°12'611.3
2018-Apr-17 23:01N 28°58' W 013°15'611.6
2018-Apr-17 22:30N 28°52' W 013°18'611.4
2018-Apr-17 22:00N 28°47' W 013°21'611.3
2018-Apr-17 21:28N 28°42' W 013°24'511.2
2018-Apr-17 21:00N 28°37' W 013°26'611.2
2018-Apr-17 20:30N 28°32' W 013°29'611.3
2018-Apr-17 20:00N 28°27' W 013°32'611.2
2018-Apr-17 19:30N 28°22' W 013°34'611.2
2018-Apr-17 19:00N 28°16' W 013°37'611.2
2018-Apr-17 18:30N 28°11' W 013°39'611.5
2018-Apr-17 17:58N 28°06' W 013°42'511.5
2018-Apr-17 17:30N 28°01' W 013°45'611.7
2018-Apr-17 17:00N 27°56' W 013°47'611.3
2018-Apr-17 16:30N 27°50' W 013°50'510.9
2018-Apr-17 16:00N 27°45' W 013°53'510.2
2018-Apr-17 15:30N 27°41' W 013°56'510.2
2018-Apr-17 15:00N 27°37' W 013°59'510.3
2018-Apr-17 14:30N 27°32' W 014°02'510.2
2018-Apr-17 14:00N 27°28' W 014°05'510.2
2018-Apr-17 13:28N 27°23' W 014°08'510.3
2018-Apr-17 13:00N 27°19' W 014°10'510.4
2018-Apr-17 12:30N 27°15' W 014°13'510.5
2018-Apr-17 12:00N 27°10' W 014°16'510.4
2018-Apr-17 11:31N 27°05' W 014°19'510.2
2018-Apr-17 10:59N 27°01' W 014°21'510.0
2018-Apr-17 10:29N 26°56' W 014°24'5 9.7
2018-Apr-17 10:01N 26°52' W 014°26'5 9.8
2018-Apr-17 09:29N 26°47' W 014°28'510.1
2018-Apr-17 09:01N 26°43' W 014°30'510.4
2018-Apr-17 08:31N 26°38' W 014°33'510.5
2018-Apr-17 08:00N 26°33' W 014°36'510.3
2018-Apr-17 07:30N 26°29' W 014°38'510.0
2018-Apr-17 07:00N 26°24' W 014°41'  

Dump ship's entire track history